sensor_id;sensor_type;location;lat;lon;timestamp;temperature;humidity
26408;DHT22;14583;43.604;1.364;2023-11-21T00:01:57;11.40;99.90
26408;DHT22;14583;43.604;1.364;2023-11-21T00:04:24;11.40;99.90
26408;DHT22;14583;43.604;1.364;2023-11-21T00:06:50;11.40;99.90
26408;DHT22;14583;43.604;1.364;2023-11-21T00:09:16;11.40;99.90
26408;DHT22;14583;43.604;1.364;2023-11-21T00:11:43;11.40;99.90
26408;DHT22;14583;43.604;1.364;2023-11-21T00:14:10;11.40;99.90
26408;DHT22;14583;43.604;1.364;2023-11-21T00:16:36;11.40;99.90
26408;DHT22;14583;43.604;1.364;2023-11-21T00:19:02;11.30;99.90
26408;DHT22;14583;43.604;1.364;2023-11-21T00:21:28;11.30;99.90
26408;DHT22;14583;43.604;1.364;2023-11-21T00:23:53;11.40;99.90
26408;DHT22;14583;43.604;1.364;2023-11-21T00:26:19;11.50;99.90
26408;DHT22;14583;43.604;1.364;2023-11-21T00:28:45;11.30;99.90
26408;DHT22;14583;43.604;1.364;2023-11-21T00:31:11;11.30;99.90
26408;DHT22;14583;43.604;1.364;2023-11-21T00:33:37;11.30;99.90
26408;DHT22;14583;43.604;1.364;2023-11-21T00:36:02;11.30;99.90
26408;DHT22;14583;43.604;1.364;2023-11-21T00:38:28;11.20;99.90
26408;DHT22;14583;43.604;1.364;2023-11-21T00:40:54;11.30;99.90
26408;DHT22;14583;43.604;1.364;2023-11-21T00:43:22;11.30;99.90
26408;DHT22;14583;43.604;1.364;2023-11-21T00:45:48;11.30;99.90
26408;DHT22;14583;43.604;1.364;2023-11-21T00:48:17;11.30;99.90
26408;DHT22;14583;43.604;1.364;2023-11-21T00:50:44;11.20;99.90
26408;DHT22;14583;43.604;1.364;2023-11-21T00:53:09;11.20;99.90
26408;DHT22;14583;43.604;1.364;2023-11-21T00:55:36;11.20;99.90
26408;DHT22;14583;43.604;1.364;2023-11-21T00:58:02;11.30;99.90
26408;DHT22;14583;43.604;1.364;2023-11-21T01:00:29;11.30;99.90
26408;DHT22;14583;43.604;1.364;2023-11-21T01:02:55;11.20;99.90
26408;DHT22;14583;43.604;1.364;2023-11-21T01:05:21;11.30;99.90
26408;DHT22;14583;43.604;1.364;2023-11-21T01:07:47;11.20;99.90
26408;DHT22;14583;43.604;1.364;2023-11-21T01:10:13;11.20;99.90
26408;DHT22;14583;43.604;1.364;2023-11-21T01:12:39;11.20;99.90
26408;DHT22;14583;43.604;1.364;2023-11-21T01:15:05;11.30;99.90
26408;DHT22;14583;43.604;1.364;2023-11-21T01:17:34;11.30;99.90
26408;DHT22;14583;43.604;1.364;2023-11-21T01:20:01;11.30;99.90
26408;DHT22;14583;43.604;1.364;2023-11-21T01:22:27;11.20;99.90
26408;DHT22;14583;43.604;1.364;2023-11-21T01:24:53;11.30;99.90
26408;DHT22;14583;43.604;1.364;2023-11-21T01:27:19;11.30;99.90
26408;DHT22;14583;43.604;1.364;2023-11-21T01:29:45;11.20;99.90
26408;DHT22;14583;43.604;1.364;2023-11-21T01:32:11;11.20;99.90
26408;DHT22;14583;43.604;1.364;2023-11-21T01:34:37;11.20;99.90
26408;DHT22;14583;43.604;1.364;2023-11-21T01:37:03;11.20;99.90
26408;DHT22;14583;43.604;1.364;2023-11-21T01:39:31;11.20;99.90
26408;DHT22;14583;43.604;1.364;2023-11-21T01:41:57;11.20;99.90
26408;DHT22;14583;43.604;1.364;2023-11-21T01:44:26;11.20;99.90
26408;DHT22;14583;43.604;1.364;2023-11-21T01:46:52;11.20;99.90
26408;DHT22;14583;43.604;1.364;2023-11-21T01:49:19;11.20;99.90
26408;DHT22;14583;43.604;1.364;2023-11-21T01:51:47;11.20;99.90
26408;DHT22;14583;43.604;1.364;2023-11-21T01:54:15;11.10;99.90
26408;DHT22;14583;43.604;1.364;2023-11-21T01:56:50;11.10;99.90
26408;DHT22;14583;43.604;1.364;2023-11-21T01:59:20;11.00;99.90
26408;DHT22;14583;43.604;1.364;2023-11-21T02:01:50;11.00;99.90
26408;DHT22;14583;43.604;1.364;2023-11-21T02:04:16;11.00;99.90
26408;DHT22;14583;43.604;1.364;2023-11-21T02:06:42;10.90;99.90
26408;DHT22;14583;43.604;1.364;2023-11-21T02:09:07;11.00;99.90
26408;DHT22;14583;43.604;1.364;2023-11-21T02:11:34;11.00;99.90
26408;DHT22;14583;43.604;1.364;2023-11-21T02:14:00;11.00;99.90
26408;DHT22;14583;43.604;1.364;2023-11-21T02:16:26;10.90;99.90
26408;DHT22;14583;43.604;1.364;2023-11-21T02:18:53;11.00;99.90
26408;DHT22;14583;43.604;1.364;2023-11-21T02:21:18;11.00;99.90
26408;DHT22;14583;43.604;1.364;2023-11-21T02:23:47;10.90;99.90
26408;DHT22;14583;43.604;1.364;2023-11-21T02:26:13;11.00;99.90
26408;DHT22;14583;43.604;1.364;2023-11-21T02:28:39;10.90;99.90
26408;DHT22;14583;43.604;1.364;2023-11-21T02:31:05;10.80;99.90
26408;DHT22;14583;43.604;1.364;2023-11-21T02:33:33;10.90;99.90
26408;DHT22;14583;43.604;1.364;2023-11-21T02:36:02;10.90;99.90
26408;DHT22;14583;43.604;1.364;2023-11-21T02:38:28;11.00;99.90
26408;DHT22;14583;43.604;1.364;2023-11-21T02:40:54;11.00;99.90
26408;DHT22;14583;43.604;1.364;2023-11-21T02:43:20;10.90;99.90
26408;DHT22;14583;43.604;1.364;2023-11-21T02:45:45;10.90;99.90
26408;DHT22;14583;43.604;1.364;2023-11-21T02:48:11;10.90;99.90
26408;DHT22;14583;43.604;1.364;2023-11-21T02:50:37;10.90;99.90
26408;DHT22;14583;43.604;1.364;2023-11-21T02:53:03;10.90;99.90
26408;DHT22;14583;43.604;1.364;2023-11-21T02:55:31;10.90;99.90
26408;DHT22;14583;43.604;1.364;2023-11-21T02:58:01;10.90;99.90
26408;DHT22;14583;43.604;1.364;2023-11-21T03:00:30;10.80;99.90
26408;DHT22;14583;43.604;1.364;2023-11-21T03:02:56;10.80;99.90
26408;DHT22;14583;43.604;1.364;2023-11-21T03:05:22;10.80;99.90
26408;DHT22;14583;43.604;1.364;2023-11-21T03:07:47;10.70;99.90
26408;DHT22;14583;43.604;1.364;2023-11-21T03:10:13;10.60;99.90
26408;DHT22;14583;43.604;1.364;2023-11-21T03:12:39;10.60;99.90
26408;DHT22;14583;43.604;1.364;2023-11-21T03:15:06;10.60;99.90
26408;DHT22;14583;43.604;1.364;2023-11-21T03:17:32;10.70;99.90
26408;DHT22;14583;43.604;1.364;2023-11-21T03:20:00;10.70;99.90
26408;DHT22;14583;43.604;1.364;2023-11-21T03:22:26;10.60;99.90
26408;DHT22;14583;43.604;1.364;2023-11-21T03:24:52;10.60;99.90
26408;DHT22;14583;43.604;1.364;2023-11-21T03:27:18;10.50;99.90
26408;DHT22;14583;43.604;1.364;2023-11-21T03:29:44;10.50;99.90
26408;DHT22;14583;43.604;1.364;2023-11-21T03:32:12;10.50;99.90
26408;DHT22;14583;43.604;1.364;2023-11-21T03:34:53;10.60;99.90
26408;DHT22;14583;43.604;1.364;2023-11-21T03:37:20;10.60;99.90
26408;DHT22;14583;43.604;1.364;2023-11-21T03:39:46;10.50;99.90
26408;DHT22;14583;43.604;1.364;2023-11-21T03:42:12;10.50;99.90
26408;DHT22;14583;43.604;1.364;2023-11-21T03:44:38;10.50;99.90
26408;DHT22;14583;43.604;1.364;2023-11-21T03:47:03;10.50;99.90
26408;DHT22;14583;43.604;1.364;2023-11-21T03:49:29;10.50;99.90
26408;DHT22;14583;43.604;1.364;2023-11-21T03:51:55;10.40;99.90
26408;DHT22;14583;43.604;1.364;2023-11-21T03:54:21;10.30;99.90
26408;DHT22;14583;43.604;1.364;2023-11-21T03:56:47;10.30;99.90
26408;DHT22;14583;43.604;1.364;2023-11-21T03:59:12;10.40;99.90
26408;DHT22;14583;43.604;1.364;2023-11-21T04:01:38;10.40;99.90
26408;DHT22;14583;43.604;1.364;2023-11-21T04:04:05;10.60;99.90
26408;DHT22;14583;43.604;1.364;2023-11-21T04:06:30;10.60;99.90
26408;DHT22;14583;43.604;1.364;2023-11-21T04:08:58;10.50;99.90
26408;DHT22;14583;43.604;1.364;2023-11-21T04:11:24;10.40;99.90
26408;DHT22;14583;43.604;1.364;2023-11-21T04:13:50;10.40;99.90
26408;DHT22;14583;43.604;1.364;2023-11-21T04:16:15;10.40;99.90
26408;DHT22;14583;43.604;1.364;2023-11-21T04:18:41;10.40;99.90
26408;DHT22;14583;43.604;1.364;2023-11-21T04:21:07;10.40;99.90
26408;DHT22;14583;43.604;1.364;2023-11-21T04:23:33;10.40;99.90
26408;DHT22;14583;43.604;1.364;2023-11-21T04:25:59;10.40;99.90
26408;DHT22;14583;43.604;1.364;2023-11-21T04:28:25;10.40;99.90
26408;DHT22;14583;43.604;1.364;2023-11-21T04:30:51;10.30;99.90
26408;DHT22;14583;43.604;1.364;2023-11-21T04:33:17;10.30;99.90
26408;DHT22;14583;43.604;1.364;2023-11-21T04:35:43;10.30;99.90
26408;DHT22;14583;43.604;1.364;2023-11-21T04:38:08;10.20;99.90
26408;DHT22;14583;43.604;1.364;2023-11-21T04:40:34;10.20;99.90
26408;DHT22;14583;43.604;1.364;2023-11-21T04:43:00;10.30;99.90
26408;DHT22;14583;43.604;1.364;2023-11-21T04:45:26;10.50;99.90
26408;DHT22;14583;43.604;1.364;2023-11-21T04:47:52;10.40;99.90
26408;DHT22;14583;43.604;1.364;2023-11-21T04:50:18;10.40;99.90
26408;DHT22;14583;43.604;1.364;2023-11-21T04:52:44;10.50;99.90
26408;DHT22;14583;43.604;1.364;2023-11-21T04:55:10;10.60;99.90
26408;DHT22;14583;43.604;1.364;2023-11-21T04:57:39;10.60;99.90
26408;DHT22;14583;43.604;1.364;2023-11-21T05:00:09;10.50;99.90
26408;DHT22;14583;43.604;1.364;2023-11-21T05:02:35;10.50;99.90
26408;DHT22;14583;43.604;1.364;2023-11-21T05:05:02;10.60;99.90
26408;DHT22;14583;43.604;1.364;2023-11-21T05:07:32;10.60;99.90
26408;DHT22;14583;43.604;1.364;2023-11-21T05:09:57;10.60;99.90
26408;DHT22;14583;43.604;1.364;2023-11-21T05:12:25;10.60;99.90
26408;DHT22;14583;43.604;1.364;2023-11-21T05:14:51;10.50;99.90
26408;DHT22;14583;43.604;1.364;2023-11-21T05:17:17;10.50;99.90
26408;DHT22;14583;43.604;1.364;2023-11-21T05:19:42;10.50;99.90
26408;DHT22;14583;43.604;1.364;2023-11-21T05:22:11;10.60;99.90
26408;DHT22;14583;43.604;1.364;2023-11-21T05:24:37;10.70;99.90
26408;DHT22;14583;43.604;1.364;2023-11-21T05:27:05;10.60;99.90
26408;DHT22;14583;43.604;1.364;2023-11-21T05:29:30;10.60;99.90
26408;DHT22;14583;43.604;1.364;2023-11-21T05:31:56;10.70;99.90
26408;DHT22;14583;43.604;1.364;2023-11-21T05:34:22;10.70;99.90
26408;DHT22;14583;43.604;1.364;2023-11-21T05:36:50;10.80;99.90
26408;DHT22;14583;43.604;1.364;2023-11-21T05:39:15;10.80;99.90
26408;DHT22;14583;43.604;1.364;2023-11-21T05:41:43;10.80;99.90
26408;DHT22;14583;43.604;1.364;2023-11-21T05:44:15;10.70;99.90
26408;DHT22;14583;43.604;1.364;2023-11-21T05:46:47;10.70;99.90
26408;DHT22;14583;43.604;1.364;2023-11-21T05:49:13;10.80;99.90
26408;DHT22;14583;43.604;1.364;2023-11-21T05:51:38;10.80;99.90
26408;DHT22;14583;43.604;1.364;2023-11-21T05:54:04;10.90;99.90
26408;DHT22;14583;43.604;1.364;2023-11-21T05:56:30;10.80;99.90
26408;DHT22;14583;43.604;1.364;2023-11-21T05:58:56;10.90;99.90
26408;DHT22;14583;43.604;1.364;2023-11-21T06:01:21;10.90;99.90
26408;DHT22;14583;43.604;1.364;2023-11-21T06:03:48;10.90;99.90
26408;DHT22;14583;43.604;1.364;2023-11-21T06:06:13;10.90;99.90
26408;DHT22;14583;43.604;1.364;2023-11-21T06:08:39;10.80;99.90
26408;DHT22;14583;43.604;1.364;2023-11-21T06:11:05;10.80;99.90
26408;DHT22;14583;43.604;1.364;2023-11-21T06:13:30;10.80;99.90
26408;DHT22;14583;43.604;1.364;2023-11-21T06:15:56;10.80;99.90
26408;DHT22;14583;43.604;1.364;2023-11-21T06:18:22;10.70;99.90
26408;DHT22;14583;43.604;1.364;2023-11-21T06:20:47;10.80;99.90
26408;DHT22;14583;43.604;1.364;2023-11-21T06:23:13;10.70;99.90
26408;DHT22;14583;43.604;1.364;2023-11-21T06:25:39;10.70;99.90
26408;DHT22;14583;43.604;1.364;2023-11-21T06:28:05;10.80;99.90
26408;DHT22;14583;43.604;1.364;2023-11-21T06:30:31;10.70;99.90
26408;DHT22;14583;43.604;1.364;2023-11-21T06:32:57;10.70;99.90
26408;DHT22;14583;43.604;1.364;2023-11-21T06:35:23;10.80;99.90
26408;DHT22;14583;43.604;1.364;2023-11-21T06:37:49;10.80;99.90
26408;DHT22;14583;43.604;1.364;2023-11-21T06:40:15;10.80;99.90
26408;DHT22;14583;43.604;1.364;2023-11-21T06:42:41;10.80;99.90
26408;DHT22;14583;43.604;1.364;2023-11-21T06:45:07;10.80;99.90
26408;DHT22;14583;43.604;1.364;2023-11-21T06:47:33;10.90;99.90
26408;DHT22;14583;43.604;1.364;2023-11-21T06:50:00;10.90;99.90
26408;DHT22;14583;43.604;1.364;2023-11-21T06:52:26;10.80;99.90
26408;DHT22;14583;43.604;1.364;2023-11-21T06:54:51;10.90;99.90
26408;DHT22;14583;43.604;1.364;2023-11-21T06:57:17;10.90;99.90
26408;DHT22;14583;43.604;1.364;2023-11-21T06:59:43;10.90;99.90
26408;DHT22;14583;43.604;1.364;2023-11-21T07:02:09;10.80;99.90
26408;DHT22;14583;43.604;1.364;2023-11-21T07:04:35;10.80;99.90
26408;DHT22;14583;43.604;1.364;2023-11-21T07:07:02;10.80;99.90
26408;DHT22;14583;43.604;1.364;2023-11-21T07:09:28;10.90;99.90
26408;DHT22;14583;43.604;1.364;2023-11-21T07:11:54;10.90;99.90
26408;DHT22;14583;43.604;1.364;2023-11-21T07:14:20;10.90;99.90
26408;DHT22;14583;43.604;1.364;2023-11-21T07:16:46;10.90;99.90
26408;DHT22;14583;43.604;1.364;2023-11-21T07:19:13;11.00;99.90
26408;DHT22;14583;43.604;1.364;2023-11-21T07:21:39;11.00;99.90
26408;DHT22;14583;43.604;1.364;2023-11-21T07:24:06;10.90;99.90
26408;DHT22;14583;43.604;1.364;2023-11-21T07:26:33;10.90;99.90
26408;DHT22;14583;43.604;1.364;2023-11-21T07:29:02;10.90;99.90
26408;DHT22;14583;43.604;1.364;2023-11-21T07:31:28;10.90;99.90
26408;DHT22;14583;43.604;1.364;2023-11-21T07:33:55;10.90;99.90
26408;DHT22;14583;43.604;1.364;2023-11-21T07:36:23;11.00;99.90
26408;DHT22;14583;43.604;1.364;2023-11-21T07:38:49;11.10;99.90
26408;DHT22;14583;43.604;1.364;2023-11-21T07:41:15;11.00;99.90
26408;DHT22;14583;43.604;1.364;2023-11-21T07:43:43;11.00;99.90
26408;DHT22;14583;43.604;1.364;2023-11-21T07:46:09;11.00;99.90
26408;DHT22;14583;43.604;1.364;2023-11-21T07:48:35;11.10;99.90
26408;DHT22;14583;43.604;1.364;2023-11-21T07:51:03;11.10;99.90
26408;DHT22;14583;43.604;1.364;2023-11-21T07:53:32;11.20;99.90
26408;DHT22;14583;43.604;1.364;2023-11-21T07:56:02;11.20;99.90
26408;DHT22;14583;43.604;1.364;2023-11-21T07:58:28;11.10;99.90
26408;DHT22;14583;43.604;1.364;2023-11-21T08:00:54;11.20;99.90
26408;DHT22;14583;43.604;1.364;2023-11-21T08:03:19;11.30;99.90
26408;DHT22;14583;43.604;1.364;2023-11-21T08:05:46;11.30;99.90
26408;DHT22;14583;43.604;1.364;2023-11-21T08:08:12;11.30;99.90
26408;DHT22;14583;43.604;1.364;2023-11-21T08:10:38;11.30;99.90
26408;DHT22;14583;43.604;1.364;2023-11-21T08:13:05;11.30;99.90
26408;DHT22;14583;43.604;1.364;2023-11-21T08:15:30;11.30;99.90
26408;DHT22;14583;43.604;1.364;2023-11-21T08:17:59;11.40;99.90
26408;DHT22;14583;43.604;1.364;2023-11-21T08:20:25;11.40;99.90
26408;DHT22;14583;43.604;1.364;2023-11-21T08:22:51;11.40;99.90
26408;DHT22;14583;43.604;1.364;2023-11-21T08:25:20;11.40;99.90
26408;DHT22;14583;43.604;1.364;2023-11-21T08:27:46;11.40;99.90
26408;DHT22;14583;43.604;1.364;2023-11-21T08:30:12;11.50;99.90
26408;DHT22;14583;43.604;1.364;2023-11-21T08:32:39;11.50;99.90
26408;DHT22;14583;43.604;1.364;2023-11-21T08:35:07;11.50;99.90
26408;DHT22;14583;43.604;1.364;2023-11-21T08:37:33;11.50;99.90
26408;DHT22;14583;43.604;1.364;2023-11-21T08:40:03;11.50;99.90
26408;DHT22;14583;43.604;1.364;2023-11-21T08:42:29;11.50;99.90
26408;DHT22;14583;43.604;1.364;2023-11-21T08:44:56;11.60;99.90
26408;DHT22;14583;43.604;1.364;2023-11-21T08:47:23;11.60;99.90
26408;DHT22;14583;43.604;1.364;2023-11-21T08:49:50;11.60;99.90
26408;DHT22;14583;43.604;1.364;2023-11-21T08:52:19;11.60;99.90
26408;DHT22;14583;43.604;1.364;2023-11-21T08:54:49;11.70;99.90
26408;DHT22;14583;43.604;1.364;2023-11-21T08:57:24;11.70;99.90
26408;DHT22;14583;43.604;1.364;2023-11-21T08:59:49;11.60;99.90
26408;DHT22;14583;43.604;1.364;2023-11-21T09:02:21;11.60;99.90
26408;DHT22;14583;43.604;1.364;2023-11-21T09:04:48;11.70;99.90
26408;DHT22;14583;43.604;1.364;2023-11-21T09:07:13;11.70;99.90
26408;DHT22;14583;43.604;1.364;2023-11-21T09:09:39;11.70;99.90
26408;DHT22;14583;43.604;1.364;2023-11-21T09:12:05;11.70;99.90
26408;DHT22;14583;43.604;1.364;2023-11-21T09:14:31;11.60;99.90
26408;DHT22;14583;43.604;1.364;2023-11-21T09:16:56;11.60;99.90
26408;DHT22;14583;43.604;1.364;2023-11-21T09:19:22;11.60;99.90
26408;DHT22;14583;43.604;1.364;2023-11-21T09:21:48;11.70;99.90
26408;DHT22;14583;43.604;1.364;2023-11-21T09:24:14;11.80;99.90
26408;DHT22;14583;43.604;1.364;2023-11-21T09:26:40;11.80;99.90
26408;DHT22;14583;43.604;1.364;2023-11-21T09:29:06;11.80;99.90
26408;DHT22;14583;43.604;1.364;2023-11-21T09:31:33;11.80;99.90
26408;DHT22;14583;43.604;1.364;2023-11-21T09:33:59;11.80;99.90
26408;DHT22;14583;43.604;1.364;2023-11-21T09:36:25;11.80;99.90
26408;DHT22;14583;43.604;1.364;2023-11-21T09:38:53;11.80;99.90
26408;DHT22;14583;43.604;1.364;2023-11-21T09:41:35;11.80;99.90
26408;DHT22;14583;43.604;1.364;2023-11-21T09:44:09;11.80;99.90
26408;DHT22;14583;43.604;1.364;2023-11-21T09:46:42;11.80;99.90
26408;DHT22;14583;43.604;1.364;2023-11-21T09:49:09;11.90;99.90
26408;DHT22;14583;43.604;1.364;2023-11-21T09:51:43;11.90;99.90
26408;DHT22;14583;43.604;1.364;2023-11-21T09:54:10;12.00;99.90
26408;DHT22;14583;43.604;1.364;2023-11-21T09:56:40;12.00;99.90
26408;DHT22;14583;43.604;1.364;2023-11-21T09:59:06;12.00;99.90
26408;DHT22;14583;43.604;1.364;2023-11-21T10:01:36;12.00;99.90
26408;DHT22;14583;43.604;1.364;2023-11-21T10:04:03;11.90;99.90
26408;DHT22;14583;43.604;1.364;2023-11-21T10:06:30;11.90;99.90
26408;DHT22;14583;43.604;1.364;2023-11-21T10:08:56;11.90;99.90
26408;DHT22;14583;43.604;1.364;2023-11-21T10:11:27;11.90;99.90
26408;DHT22;14583;43.604;1.364;2023-11-21T10:13:55;11.90;99.90
26408;DHT22;14583;43.604;1.364;2023-11-21T10:16:26;11.90;99.90
26408;DHT22;14583;43.604;1.364;2023-11-21T10:18:53;11.90;99.90
26408;DHT22;14583;43.604;1.364;2023-11-21T10:21:21;12.00;99.90
26408;DHT22;14583;43.604;1.364;2023-11-21T10:23:47;12.00;99.90
26408;DHT22;14583;43.604;1.364;2023-11-21T10:26:13;12.10;99.90
26408;DHT22;14583;43.604;1.364;2023-11-21T10:28:54;12.20;99.90
26408;DHT22;14583;43.604;1.364;2023-11-21T10:31:21;12.30;99.90
26408;DHT22;14583;43.604;1.364;2023-11-21T10:33:46;12.20;99.90
26408;DHT22;14583;43.604;1.364;2023-11-21T10:36:12;12.30;99.90
26408;DHT22;14583;43.604;1.364;2023-11-21T10:38:42;12.30;99.90
26408;DHT22;14583;43.604;1.364;2023-11-21T10:41:11;12.40;99.90
26408;DHT22;14583;43.604;1.364;2023-11-21T10:43:39;12.40;99.90
26408;DHT22;14583;43.604;1.364;2023-11-21T10:46:05;12.30;99.90
26408;DHT22;14583;43.604;1.364;2023-11-21T10:48:32;12.30;99.90
26408;DHT22;14583;43.604;1.364;2023-11-21T10:50:58;12.20;99.90
26408;DHT22;14583;43.604;1.364;2023-11-21T10:53:28;12.30;99.90
26408;DHT22;14583;43.604;1.364;2023-11-21T10:56:05;12.30;99.90
26408;DHT22;14583;43.604;1.364;2023-11-21T10:58:33;12.40;99.90
26408;DHT22;14583;43.604;1.364;2023-11-21T11:01:00;12.40;99.90
26408;DHT22;14583;43.604;1.364;2023-11-21T11:03:26;12.30;99.90
26408;DHT22;14583;43.604;1.364;2023-11-21T11:05:52;12.30;99.90
26408;DHT22;14583;43.604;1.364;2023-11-21T11:08:21;12.30;99.90
26408;DHT22;14583;43.604;1.364;2023-11-21T11:10:52;12.30;99.90
26408;DHT22;14583;43.604;1.364;2023-11-21T11:13:18;12.30;99.90
26408;DHT22;14583;43.604;1.364;2023-11-21T11:15:47;12.30;99.90
26408;DHT22;14583;43.604;1.364;2023-11-21T11:18:14;12.30;99.90
26408;DHT22;14583;43.604;1.364;2023-11-21T11:20:42;12.30;99.90
26408;DHT22;14583;43.604;1.364;2023-11-21T11:28:38;12.20;99.90
26408;DHT22;14583;43.604;1.364;2023-11-21T11:32:00;12.30;99.90
26408;DHT22;14583;43.604;1.364;2023-11-21T11:34:39;12.40;99.90
26408;DHT22;14583;43.604;1.364;2023-11-21T11:37:08;12.50;99.90
26408;DHT22;14583;43.604;1.364;2023-11-21T11:39:40;12.50;99.90
26408;DHT22;14583;43.604;1.364;2023-11-21T11:42:15;12.50;99.90
26408;DHT22;14583;43.604;1.364;2023-11-21T11:50:10;12.60;99.90
26408;DHT22;14583;43.604;1.364;2023-11-21T11:52:54;12.60;99.90
26408;DHT22;14583;43.604;1.364;2023-11-21T11:55:24;12.60;99.90
26408;DHT22;14583;43.604;1.364;2023-11-21T11:57:54;12.70;99.90
26408;DHT22;14583;43.604;1.364;2023-11-21T12:02:54;12.70;99.90
26408;DHT22;14583;43.604;1.364;2023-11-21T12:05:22;12.80;99.90
26408;DHT22;14583;43.604;1.364;2023-11-21T12:07:52;12.80;99.90
26408;DHT22;14583;43.604;1.364;2023-11-21T12:10:27;12.80;99.90
26408;DHT22;14583;43.604;1.364;2023-11-21T12:12:54;12.70;99.90
26408;DHT22;14583;43.604;1.364;2023-11-21T12:15:21;12.70;99.90
26408;DHT22;14583;43.604;1.364;2023-11-21T12:17:48;12.60;99.90
26408;DHT22;14583;43.604;1.364;2023-11-21T12:20:15;12.50;99.90
26408;DHT22;14583;43.604;1.364;2023-11-21T12:22:44;12.60;99.90
26408;DHT22;14583;43.604;1.364;2023-11-21T12:25:13;12.50;99.90
26408;DHT22;14583;43.604;1.364;2023-11-21T12:27:42;12.40;99.90
26408;DHT22;14583;43.604;1.364;2023-11-21T12:30:09;12.40;99.90
26408;DHT22;14583;43.604;1.364;2023-11-21T12:32:42;12.30;99.90
26408;DHT22;14583;43.604;1.364;2023-11-21T12:35:09;12.10;99.90
26408;DHT22;14583;43.604;1.364;2023-11-21T12:37:41;12.10;99.90
26408;DHT22;14583;43.604;1.364;2023-11-21T12:40:10;12.20;99.90
26408;DHT22;14583;43.604;1.364;2023-11-21T12:42:41;12.10;99.90
26408;DHT22;14583;43.604;1.364;2023-11-21T12:47:47;12.20;99.90
26408;DHT22;14583;43.604;1.364;2023-11-21T12:50:23;12.30;99.90
26408;DHT22;14583;43.604;1.364;2023-11-21T12:52:51;12.40;99.90
26408;DHT22;14583;43.604;1.364;2023-11-21T12:55:21;12.50;99.90
26408;DHT22;14583;43.604;1.364;2023-11-21T12:57:52;12.50;99.90
26408;DHT22;14583;43.604;1.364;2023-11-21T13:00:26;12.50;99.90
26408;DHT22;14583;43.604;1.364;2023-11-21T13:02:57;12.60;99.90
26408;DHT22;14583;43.604;1.364;2023-11-21T13:05:32;12.50;99.90
26408;DHT22;14583;43.604;1.364;2023-11-21T13:08:00;12.60;99.90
26408;DHT22;14583;43.604;1.364;2023-11-21T13:10:29;12.50;99.90
26408;DHT22;14583;43.604;1.364;2023-11-21T13:13:00;12.50;99.90
26408;DHT22;14583;43.604;1.364;2023-11-21T13:15:29;12.50;99.90
26408;DHT22;14583;43.604;1.364;2023-11-21T13:17:57;12.50;99.90
26408;DHT22;14583;43.604;1.364;2023-11-21T13:20:26;12.50;99.90
26408;DHT22;14583;43.604;1.364;2023-11-21T13:22:56;12.50;99.90
26408;DHT22;14583;43.604;1.364;2023-11-21T13:25:29;12.40;99.90
26408;DHT22;14583;43.604;1.364;2023-11-21T13:27:57;12.40;99.90
26408;DHT22;14583;43.604;1.364;2023-11-21T13:30:27;12.40;99.90
26408;DHT22;14583;43.604;1.364;2023-11-21T13:33:01;12.40;99.90
26408;DHT22;14583;43.604;1.364;2023-11-21T13:35:31;12.40;99.90
26408;DHT22;14583;43.604;1.364;2023-11-21T13:40:33;12.50;99.90
26408;DHT22;14583;43.604;1.364;2023-11-21T13:43:05;12.50;99.90
26408;DHT22;14583;43.604;1.364;2023-11-21T13:45:44;12.40;99.90
26408;DHT22;14583;43.604;1.364;2023-11-21T13:48:11;12.50;99.90
26408;DHT22;14583;43.604;1.364;2023-11-21T13:50:43;12.40;99.90
26408;DHT22;14583;43.604;1.364;2023-11-21T13:53:14;12.40;99.90
26408;DHT22;14583;43.604;1.364;2023-11-21T13:55:55;12.40;99.90
26408;DHT22;14583;43.604;1.364;2023-11-21T13:58:23;12.50;99.90
26408;DHT22;14583;43.604;1.364;2023-11-21T14:01:08;12.50;99.90
26408;DHT22;14583;43.604;1.364;2023-11-21T14:03:52;12.60;99.90
26408;DHT22;14583;43.604;1.364;2023-11-21T14:06:23;12.50;99.90
26408;DHT22;14583;43.604;1.364;2023-11-21T14:08:55;12.60;99.90
26408;DHT22;14583;43.604;1.364;2023-11-21T14:11:22;12.60;99.90
26408;DHT22;14583;43.604;1.364;2023-11-21T14:13:49;12.60;99.90
26408;DHT22;14583;43.604;1.364;2023-11-21T14:16:15;12.60;99.90
26408;DHT22;14583;43.604;1.364;2023-11-21T14:18:43;12.60;99.90
26408;DHT22;14583;43.604;1.364;2023-11-21T14:21:19;12.60;99.90
26408;DHT22;14583;43.604;1.364;2023-11-21T14:23:45;12.60;99.90
26408;DHT22;14583;43.604;1.364;2023-11-21T14:26:14;12.60;99.90
26408;DHT22;14583;43.604;1.364;2023-11-21T14:28:41;12.60;99.90
26408;DHT22;14583;43.604;1.364;2023-11-21T14:31:07;12.50;99.90
26408;DHT22;14583;43.604;1.364;2023-11-21T14:33:33;12.50;99.90
26408;DHT22;14583;43.604;1.364;2023-11-21T14:35:59;12.40;99.90
26408;DHT22;14583;43.604;1.364;2023-11-21T14:38:25;12.40;99.90
26408;DHT22;14583;43.604;1.364;2023-11-21T14:40:51;12.50;99.90
26408;DHT22;14583;43.604;1.364;2023-11-21T14:43:16;12.50;99.90
26408;DHT22;14583;43.604;1.364;2023-11-21T14:45:44;12.60;99.90
26408;DHT22;14583;43.604;1.364;2023-11-21T14:48:10;12.60;99.90
26408;DHT22;14583;43.604;1.364;2023-11-21T14:50:42;12.60;99.90
26408;DHT22;14583;43.604;1.364;2023-11-21T14:53:09;12.60;99.90
26408;DHT22;14583;43.604;1.364;2023-11-21T14:55:35;12.70;99.90
26408;DHT22;14583;43.604;1.364;2023-11-21T14:58:03;12.70;99.90
26408;DHT22;14583;43.604;1.364;2023-11-21T15:00:29;12.60;99.90
26408;DHT22;14583;43.604;1.364;2023-11-21T15:03:02;12.60;99.90
26408;DHT22;14583;43.604;1.364;2023-11-21T15:05:28;12.60;99.90
26408;DHT22;14583;43.604;1.364;2023-11-21T15:07:54;12.60;99.90
26408;DHT22;14583;43.604;1.364;2023-11-21T15:10:24;12.60;99.90
26408;DHT22;14583;43.604;1.364;2023-11-21T15:13:09;12.50;99.90
26408;DHT22;14583;43.604;1.364;2023-11-21T15:15:36;12.50;99.90
26408;DHT22;14583;43.604;1.364;2023-11-21T15:18:03;12.50;99.90
26408;DHT22;14583;43.604;1.364;2023-11-21T15:20:28;12.50;99.90
26408;DHT22;14583;43.604;1.364;2023-11-21T15:22:55;12.50;99.90
26408;DHT22;14583;43.604;1.364;2023-11-21T15:25:21;12.50;99.90
26408;DHT22;14583;43.604;1.364;2023-11-21T15:27:47;12.50;99.90
26408;DHT22;14583;43.604;1.364;2023-11-21T15:30:15;12.50;99.90
26408;DHT22;14583;43.604;1.364;2023-11-21T15:32:44;12.40;99.90
26408;DHT22;14583;43.604;1.364;2023-11-21T15:35:10;12.40;99.90
26408;DHT22;14583;43.604;1.364;2023-11-21T15:37:40;12.40;99.90
26408;DHT22;14583;43.604;1.364;2023-11-21T15:40:06;12.40;99.90
26408;DHT22;14583;43.604;1.364;2023-11-21T15:42:34;12.40;99.90
26408;DHT22;14583;43.604;1.364;2023-11-21T15:45:02;12.30;99.90
26408;DHT22;14583;43.604;1.364;2023-11-21T15:47:30;12.30;99.90
26408;DHT22;14583;43.604;1.364;2023-11-21T15:49:56;12.30;99.90
26408;DHT22;14583;43.604;1.364;2023-11-21T15:52:21;12.30;99.90